Time;durP1;ratioP1;P1;durP2;ratioP2;P2;SDS_P1;SDS_P2;PMS_P1;PMS_P2;Temp;Humidity;BMP_temperature;BMP_pressure;BME280_temperature;BME280_humidity;BME280_pressure;Samples;Min_cycle;Max_cycle;Signal;HPM_P1;HPM_P2
2023/09/08 00:00:19;;;;;;;;;;;;;;;18.15;100.00;101798.44;5044296;28;20006;-84
2023/09/08 00:03:05;;;;;;;;;;;;;;;18.13;100.00;101794.13;5043281;28;20719;-84
2023/09/08 00:05:50;;;;;;;;;;;;;;;18.11;100.00;101798.72;5042112;28;20393;-84
2023/09/08 00:08:36;;;;;;;;;;;;;;;18.10;100.00;101799.69;5043571;28;20354;-84
2023/09/08 00:11:25;;;;;;;;;;;;;;;18.08;100.00;101796.25;5044238;28;19998;-84
2023/09/08 00:14:10;;;;;;;;;;;;;;;18.05;100.00;101792.78;5042404;28;20390;-84
2023/09/08 00:16:56;;;;;;;;;;;;;;;18.02;100.00;101795.66;5043064;28;20291;-82
2023/09/08 00:19:41;;;;;;;;;;;;;;;18.02;100.00;101792.09;5043082;28;20749;-84
2023/09/08 00:22:27;;;;;;;;;;;;;;;17.98;100.00;101794.09;5039347;28;19967;-83
2023/09/08 00:25:13;;;;;;;;;;;;;;;17.96;100.00;101796.03;5053886;28;19933;-83
2023/09/08 00:27:58;;;;;;;;;;;;;;;17.93;100.00;101790.88;5042602;28;19933;-84
2023/09/08 00:30:44;;;;;;;;;;;;;;;17.91;100.00;101800.78;5039690;28;20368;-82
2023/09/08 00:33:29;;;;;;;;;;;;;;;17.88;100.00;101795.66;5044169;28;19954;-83
2023/09/08 00:36:19;;;;;;;;;;;;;;;17.84;100.00;101804.81;5047748;28;20074;-84
2023/09/08 00:39:04;;;;;;;;;;;;;;;17.80;100.00;101797.94;5035034;28;19965;-84
2023/09/08 00:41:50;;;;;;;;;;;;;;;17.76;100.00;101798.09;5050523;28;19986;-83
2023/09/08 00:44:35;;;;;;;;;;;;;;;17.72;100.00;101791.22;5050618;28;20019;-83
2023/09/08 00:47:21;;;;;;;;;;;;;;;17.70;100.00;101795.81;5068356;28;19943;-85
2023/09/08 00:50:07;;;;;;;;;;;;;;;17.68;100.00;101789.69;5064689;28;20349;-83
2023/09/08 00:52:52;;;;;;;;;;;;;;;17.65;100.00;101789.84;5045468;28;19946;-83
2023/09/08 00:55:38;;;;;;;;;;;;;;;17.59;100.00;101787.56;5063563;28;20286;-84
2023/09/08 00:58:24;;;;;;;;;;;;;;;17.50;100.00;101792.50;5044648;28;19928;-84
2023/09/08 01:01:09;;;;;;;;;;;;;;;17.45;100.00;101789.28;5048869;28;19943;-84
2023/09/08 01:03:55;;;;;;;;;;;;;;;17.36;100.00;101784.44;5046000;28;19920;-84
2023/09/08 01:06:41;;;;;;;;;;;;;;;17.33;100.00;101787.31;5063218;28;19967;-85
2023/09/08 01:09:27;;;;;;;;;;;;;;;17.28;100.00;101789.41;5062279;28;19935;-84
2023/09/08 01:12:12;;;;;;;;;;;;;;;17.24;100.00;101786.91;5062598;28;19954;-83
2023/09/08 01:14:58;;;;;;;;;;;;;;;17.20;100.00;101790.72;5046823;28;19920;-84
2023/09/08 01:17:44;;;;;;;;;;;;;;;17.19;100.00;101793.47;5046752;28;19934;-84
2023/09/08 01:20:31;;;;;;;;;;;;;;;17.17;100.00;101790.88;5047285;28;19983;-84
2023/09/08 01:23:36;;;;;;;;;;;;;;;17.15;100.00;101795.47;5062582;28;19932;-85
2023/09/08 01:26:22;;;;;;;;;;;;;;;17.11;100.00;101791.25;5064568;28;20006;-83
2023/09/08 01:29:08;;;;;;;;;;;;;;;17.10;100.00;101789.50;5048444;28;19928;-84
2023/09/08 01:31:54;;;;;;;;;;;;;;;17.11;100.00;101785.91;5061558;28;20015;-85
2023/09/08 01:34:40;;;;;;;;;;;;;;;17.07;100.00;101790.59;5047921;28;20890;-84
2023/09/08 01:37:26;;;;;;;;;;;;;;;17.06;100.00;101796.00;5053867;28;19932;-84
2023/09/08 01:40:12;;;;;;;;;;;;;;;17.05;100.00;101791.63;5047248;28;19935;-85
2023/09/08 01:42:57;;;;;;;;;;;;;;;17.02;100.00;101791.78;5017884;28;19940;-84
2023/09/08 01:45:43;;;;;;;;;;;;;;;16.99;100.00;101789.25;5049503;28;19929;-83
2023/09/08 01:48:29;;;;;;;;;;;;;;;16.96;100.00;101782.28;5051082;28;19933;-83
2023/09/08 01:51:14;;;;;;;;;;;;;;;16.95;100.00;101776.03;5029045;28;19986;-84
2023/09/08 01:54:02;;;;;;;;;;;;;;;16.96;100.00;101787.63;5046028;28;19959;-85
2023/09/08 01:56:48;;;;;;;;;;;;;;;16.93;100.00;101779.75;5030377;28;20027;-85
2023/09/08 01:59:36;;;;;;;;;;;;;;;16.88;100.00;101780.03;5045783;28;19935;-84
2023/09/08 02:02:22;;;;;;;;;;;;;;;16.87;100.00;101786.34;5044785;28;19991;-84
2023/09/08 02:05:09;;;;;;;;;;;;;;;16.86;100.00;101781.94;5045228;28;19928;-84
2023/09/08 02:07:55;;;;;;;;;;;;;;;16.84;100.00;101775.81;5026679;28;19933;-84
2023/09/08 02:10:41;;;;;;;;;;;;;;;16.82;100.00;101786.59;5026977;28;20334;-85
2023/09/08 02:13:27;;;;;;;;;;;;;;;16.79;100.00;101775.22;5027230;28;19978;-84
2023/09/08 02:16:13;;;;;;;;;;;;;;;16.77;100.00;101769.09;5043475;28;19936;-84
2023/09/08 02:18:58;;;;;;;;;;;;;;;16.75;100.00;101768.31;5042251;28;19940;-84
2023/09/08 02:21:44;;;;;;;;;;;;;;;16.72;100.00;101772.00;5042774;28;20568;-84
2023/09/08 02:24:35;;;;;;;;;;;;;;;16.70;100.00;101771.25;5044578;28;19980;-84
2023/09/08 02:27:21;;;;;;;;;;;;;;;16.68;100.00;101765.97;5043376;28;19936;-84
2023/09/08 02:30:07;;;;;;;;;;;;;;;16.68;100.00;101774.00;5042564;28;19939;-84
2023/09/08 02:32:52;;;;;;;;;;;;;;;16.68;100.00;101773.16;5043308;28;19932;-84
2023/09/08 02:35:38;;;;;;;;;;;;;;;16.66;100.00;101765.22;5047426;28;19929;-85
2023/09/08 02:38:24;;;;;;;;;;;;;;;16.66;100.00;101767.88;5046201;28;19928;-83
2023/09/08 02:41:10;;;;;;;;;;;;;;;16.66;100.00;101772.38;5060348;28;19959;-82
2023/09/08 02:43:55;;;;;;;;;;;;;;;16.65;100.00;101768.84;5064248;28;19973;-83
2023/09/08 02:46:41;;;;;;;;;;;;;;;16.65;100.00;101767.97;5049685;28;19977;-84
2023/09/08 02:49:26;;;;;;;;;;;;;;;16.63;100.00;101762.72;5063862;28;19935;-85
2023/09/08 02:52:12;;;;;;;;;;;;;;;16.62;100.00;101771.66;5062542;28;20716;-83
2023/09/08 02:54:58;;;;;;;;;;;;;;;16.64;100.00;101772.47;5056894;28;20252;-85
2023/09/08 02:57:43;;;;;;;;;;;;;;;16.64;100.00;101766.25;5041523;28;19935;-84
2023/09/08 03:00:29;;;;;;;;;;;;;;;16.62;100.00;101766.31;5054997;28;20059;-85
2023/09/08 03:03:15;;;;;;;;;;;;;;;16.63;100.00;101764.53;5038677;28;19924;-84
2023/09/08 03:06:03;;;;;;;;;;;;;;;16.61;100.00;101759.25;5041500;28;20406;-85
2023/09/08 03:08:48;;;;;;;;;;;;;;;16.60;100.00;101754.03;5051510;28;20511;-87
2023/09/08 03:11:34;;;;;;;;;;;;;;;16.58;100.00;101762.13;5043497;28;20375;-84
2023/09/08 03:14:20;;;;;;;;;;;;;;;16.58;100.00;101761.25;5041869;28;19970;-82
2023/09/08 03:17:06;;;;;;;;;;;;;;;16.55;100.00;101757.81;5055377;28;20452;-85
2023/09/08 03:19:54;;;;;;;;;;;;;;;16.53;100.00;101754.38;5041929;28;20000;-85
2023/09/08 03:22:40;;;;;;;;;;;;;;;16.52;100.00;101757.13;5057515;28;19944;-86
2023/09/08 03:25:25;;;;;;;;;;;;;;;16.52;100.00;101751.78;5041316;28;19928;-84
2023/09/08 03:28:11;;;;;;;;;;;;;;;16.51;100.00;101747.38;5042431;28;20407;-84
2023/09/08 03:30:57;;;;;;;;;;;;;;;16.51;100.00;101742.88;5042947;28;19955;-85
2023/09/08 03:33:43;;;;;;;;;;;;;;;16.52;100.00;101741.09;5042108;28;19924;-84
2023/09/08 03:36:30;;;;;;;;;;;;;;;16.50;100.00;101738.50;5056067;28;19932;-84
2023/09/08 03:39:16;;;;;;;;;;;;;;;16.49;100.00;101743.91;5027620;28;19924;-85
2023/09/08 03:42:02;;;;;;;;;;;;;;;16.47;100.00;101733.34;5056969;28;19943;-84
2023/09/08 03:44:47;;;;;;;;;;;;;;;16.46;100.00;101736.97;5060174;28;19947;-84
2023/09/08 03:47:33;;;;;;;;;;;;;;;16.45;100.00;101734.38;5059463;28;21815;-86
2023/09/08 03:50:19;;;;;;;;;;;;;;;16.43;100.00;101737.13;5033734;28;19928;-84
2023/09/08 03:53:04;;;;;;;;;;;;;;;16.39;100.00;101736.44;5026586;28;19932;-84
2023/09/08 03:55:50;;;;;;;;;;;;;;;16.36;100.00;101730.38;5055177;28;20661;-85
2023/09/08 03:58:36;;;;;;;;;;;;;;;16.32;100.00;101735.03;5056702;28;19931;-83
2023/09/08 04:01:21;;;;;;;;;;;;;;;16.30;100.00;101736.94;5059077;28;19963;-84
2023/09/08 04:04:08;;;;;;;;;;;;;;;16.26;100.00;101736.25;5061217;28;19936;-84
2023/09/08 04:06:54;;;;;;;;;;;;;;;16.24;100.00;101737.28;5060446;28;20206;-83
2023/09/08 04:09:42;;;;;;;;;;;;;;;16.22;100.00;101733.81;5059614;28;19936;-83
2023/09/08 04:12:28;;;;;;;;;;;;;;;16.19;100.00;101744.69;5053498;28;20663;-85
2023/09/08 04:15:13;;;;;;;;;;;;;;;16.15;100.00;101734.19;5042545;28;19924;-84
2023/09/08 04:18:01;;;;;;;;;;;;;;;16.12;100.00;101739.69;5057085;28;19928;-83
2023/09/08 04:20:47;;;;;;;;;;;;;;;16.10;100.00;101736.25;5059028;28;19932;-83
2023/09/08 04:23:33;;;;;;;;;;;;;;;16.07;100.00;101724.88;5032177;28;20003;-84
2023/09/08 04:26:18;;;;;;;;;;;;;;;16.05;100.00;101732.94;5057233;28;19935;-83
2023/09/08 04:29:06;;;;;;;;;;;;;;;16.02;100.00;101722.44;5059493;28;19937;-83
2023/09/08 04:31:52;;;;;;;;;;;;;;;16.00;100.00;101721.66;5046798;28;19990;-84
2023/09/08 04:34:41;;;;;;;;;;;;;;;15.98;100.00;101731.56;5063839;28;19932;-86
2023/09/08 04:37:27;;;;;;;;;;;;;;;15.93;100.00;101718.47;5040984;28;20337;-85
2023/09/08 04:40:12;;;;;;;;;;;;;;;15.91;100.00;101719.47;5044454;28;20550;-84
2023/09/08 04:42:58;;;;;;;;;;;;;;;15.87;100.00;101724.94;5043797;28;19932;-84
2023/09/08 04:45:43;;;;;;;;;;;;;;;15.85;100.00;101723.34;5043143;28;19951;-83
2023/09/08 04:48:29;;;;;;;;;;;;;;;15.83;100.00;101725.19;5039522;28;19974;-86
2023/09/08 04:51:15;;;;;;;;;;;;;;;15.79;100.00;101719.16;5041040;28;19940;-84
2023/09/08 04:54:01;;;;;;;;;;;;;;;15.77;100.00;101715.72;5043955;28;19971;-85
2023/09/08 04:56:46;;;;;;;;;;;;;;;15.75;100.00;101714.97;5041922;28;19978;-83
2023/09/08 04:59:32;;;;;;;;;;;;;;;15.74;100.00;101713.19;5042581;28;19928;-84
2023/09/08 05:02:18;;;;;;;;;;;;;;;15.72;100.00;101715.09;5043401;28;19995;-85
2023/09/08 05:05:04;;;;;;;;;;;;;;;15.71;100.00;101718.72;5039902;28;19987;-84
2023/09/08 05:07:55;;;;;;;;;;;;;;;15.69;100.00;101731.28;5041102;28;19928;-85
2023/09/08 05:10:43;;;;;;;;;;;;;;;15.67;100.00;101733.16;5040584;28;20069;-84
2023/09/08 05:13:29;;;;;;;;;;;;;;;15.66;100.00;101726.09;5021254;28;20396;-85
2023/09/08 05:16:15;;;;;;;;;;;;;;;15.65;100.00;101727.94;5037846;28;20043;-87
2023/09/08 05:19:00;;;;;;;;;;;;;;;15.66;100.00;101720.75;5034442;28;19937;-87
2023/09/08 05:21:46;;;;;;;;;;;;;;;15.66;100.00;101715.44;5036945;28;20260;-85
2023/09/08 05:24:32;;;;;;;;;;;;;;;15.66;100.00;101726.09;5038545;28;19929;-85
2023/09/08 05:27:17;;;;;;;;;;;;;;;15.67;100.00;101717.16;5037104;28;19924;-88
2023/09/08 05:30:03;;;;;;;;;;;;;;;15.69;100.00;101718.78;5037090;28;19974;-88
2023/09/08 05:32:49;;;;;;;;;;;;;;;15.69;100.00;101732.13;5039904;28;20375;-83
2023/09/08 05:35:36;;;;;;;;;;;;;;;15.70;100.00;101736.53;5040348;28;20081;-85
2023/09/08 05:38:21;;;;;;;;;;;;;;;15.72;100.00;101731.13;5022927;28;19944;-85
2023/09/08 05:41:07;;;;;;;;;;;;;;;15.73;100.00;101725.72;5041832;28;19981;-86
2023/09/08 05:43:53;;;;;;;;;;;;;;;15.73;100.00;101728.38;5043801;28;19939;-86
2023/09/08 05:46:38;;;;;;;;;;;;;;;15.75;100.00;101725.63;5043142;28;20404;-89
2023/09/08 05:49:26;;;;;;;;;;;;;;;15.76;100.00;101732.69;5044742;28;19930;-86
2023/09/08 05:52:12;;;;;;;;;;;;;;;15.79;100.00;101737.00;5042066;28;20582;-85
2023/09/08 05:54:58;;;;;;;;;;;;;;;15.79;100.00;101732.50;5038827;28;19932;-85
2023/09/08 05:57:44;;;;;;;;;;;;;;;15.81;100.00;101733.31;5042405;28;19928;-86
2023/09/08 06:00:30;;;;;;;;;;;;;;;15.84;100.00;101734.94;5041414;28;19933;-86
2023/09/08 06:03:15;;;;;;;;;;;;;;;15.86;100.00;101731.25;5039684;28;19936;-87
2023/09/08 06:06:01;;;;;;;;;;;;;;;15.91;100.00;101735.47;5040270;28;19978;-87
2023/09/08 06:08:47;;;;;;;;;;;;;;;15.93;100.00;101739.81;5039326;28;20512;-86
2023/09/08 06:11:32;;;;;;;;;;;;;;;15.98;100.00;101731.56;5039547;28;19928;-86
2023/09/08 06:14:18;;;;;;;;;;;;;;;16.02;100.00;101736.66;5040422;28;19944;-87
2023/09/08 06:17:04;;;;;;;;;;;;;;;16.07;100.00;101741.72;5039818;28;19952;-87
2023/09/08 06:19:52;;;;;;;;;;;;;;;16.14;100.00;101744.94;5040055;28;19929;-85
2023/09/08 06:22:41;;;;;;;;;;;;;;;16.20;100.00;101743.72;5032107;28;19928;-83
2023/09/08 06:25:28;;;;;;;;;;;;;;;16.25;100.00;101752.38;5036886;28;19971;-85
2023/09/08 06:28:14;;;;;;;;;;;;;;;16.29;100.00;101744.09;5037972;28;19924;-86
2023/09/08 06:30:59;;;;;;;;;;;;;;;16.36;100.00;101741.97;5037790;28;19940;-85
2023/09/08 06:33:45;;;;;;;;;;;;;;;16.44;100.00;101746.84;5041362;28;20368;-86
2023/09/08 06:36:31;;;;;;;;;;;;;;;16.51;100.00;101760.75;5044180;28;19929;-84
2023/09/08 06:39:16;;;;;;;;;;;;;;;16.58;100.00;101746.09;5059494;28;19932;-85
2023/09/08 06:42:02;;;;;;;;;;;;;;;16.66;100.00;101746.50;5045500;28;20010;-86
2023/09/08 06:44:48;;;;;;;;;;;;;;;16.75;100.00;101749.59;5063137;28;19968;-86
2023/09/08 06:47:33;;;;;;;;;;;;;;;16.88;100.00;101757.78;5062129;28;20883;-85
2023/09/08 06:50:19;;;;;;;;;;;;;;;17.03;100.00;101753.38;5042979;28;19928;-85
2023/09/08 06:53:05;;;;;;;;;;;;;;;17.14;100.00;101752.75;5059858;28;20485;-86
2023/09/08 06:55:50;;;;;;;;;;;;;;;17.22;100.00;101756.69;5045273;28;19928;-85
2023/09/08 06:58:36;;;;;;;;;;;;;;;17.30;100.00;101755.38;5045587;28;19928;-83
2023/09/08 07:01:22;;;;;;;;;;;;;;;17.40;100.00;101750.34;5042292;28;19928;-85
2023/09/08 07:04:07;;;;;;;;;;;;;;;17.47;100.00;101760.59;5042488;28;19943;-84
2023/09/08 07:06:54;;;;;;;;;;;;;;;17.57;100.00;101750.19;5038544;28;19968;-79
2023/09/08 07:09:40;;;;;;;;;;;;;;;17.67;100.00;101755.84;5051724;28;21110;-81
2023/09/08 07:12:25;;;;;;;;;;;;;;;17.78;100.00;101758.69;5057741;28;19932;-80
2023/09/08 07:15:11;;;;;;;;;;;;;;;17.88;100.00;101755.47;5042542;28;19977;-81
2023/09/08 07:17:57;;;;;;;;;;;;;;;17.97;100.00;101752.19;5055693;28;19937;-80
2023/09/08 07:20:46;;;;;;;;;;;;;;;18.10;100.00;101762.19;5056275;28;19959;-81
2023/09/08 07:23:31;;;;;;;;;;;;;;;18.21;100.00;101765.06;5044254;28;20271;-81
2023/09/08 07:26:18;;;;;;;;;;;;;;;18.32;100.00;101761.69;5060079;28;19935;-81
2023/09/08 07:29:03;;;;;;;;;;;;;;;18.47;100.00;101765.22;5056554;28;19929;-83
2023/09/08 07:31:51;;;;;;;;;;;;;;;18.63;100.00;101762.38;5039902;28;19928;-82
2023/09/08 07:34:36;;;;;;;;;;;;;;;18.81;100.00;101763.00;5041713;28;19921;-84
2023/09/08 07:37:22;;;;;;;;;;;;;;;18.98;100.00;101766.38;5039241;28;20816;-86
2023/09/08 07:40:11;;;;;;;;;;;;;;;19.09;100.00;101769.25;5036721;28;20002;-81
2023/09/08 07:42:57;;;;;;;;;;;;;;;19.22;100.00;101766.56;5039684;28;21734;-81
2023/09/08 07:45:42;;;;;;;;;;;;;;;19.35;100.00;101768.44;5037713;28;19928;-81
2023/09/08 07:48:28;;;;;;;;;;;;;;;19.47;100.00;101759.53;5039414;28;20001;-80
2023/09/08 07:51:14;;;;;;;;;;;;;;;19.59;100.00;101763.19;5039991;28;20022;-79
2023/09/08 07:54:04;;;;;;;;;;;;;;;19.71;100.00;101757.94;5040741;28;20315;-79
2023/09/08 07:56:49;;;;;;;;;;;;;;;19.80;100.00;101750.09;5043220;28;20839;-81
2023/09/08 07:59:35;;;;;;;;;;;;;;;19.86;100.00;101754.16;5043207;28;20054;-80
2023/09/08 08:02:21;;;;;;;;;;;;;;;19.98;100.00;101762.38;5054220;28;19937;-80
2023/09/08 08:05:12;;;;;;;;;;;;;;;20.10;100.00;101750.72;5043358;28;19928;-80
2023/09/08 08:07:58;;;;;;;;;;;;;;;20.21;100.00;101756.19;5042469;28;19939;-80
2023/09/08 08:10:43;;;;;;;;;;;;;;;20.34;100.00;101753.47;5042607;28;21534;-80
2023/09/08 08:13:29;;;;;;;;;;;;;;;20.49;100.00;101743.41;5043326;28;19975;-80
2023/09/08 08:16:15;;;;;;;;;;;;;;;20.65;100.00;101744.97;5025227;28;19966;-80
2023/09/08 08:19:00;;;;;;;;;;;;;;;20.74;100.00;101741.59;5043122;28;19932;-80
2023/09/08 08:21:46;;;;;;;;;;;;;;;20.89;100.00;101739.63;5041590;28;20388;-81
2023/09/08 08:24:32;;;;;;;;;;;;;;;21.08;100.00;101748.97;5042989;28;20364;-81
2023/09/08 08:27:17;;;;;;;;;;;;;;;21.16;100.00;101751.97;5041566;28;19929;-81
2023/09/08 08:30:04;;;;;;;;;;;;;;;21.24;100.00;101742.44;5042949;28;20339;-80
2023/09/08 08:32:51;;;;;;;;;;;;;;;21.34;100.00;101742.59;5043364;28;20414;-79
2023/09/08 08:35:36;;;;;;;;;;;;;;;21.49;100.00;101737.81;5040635;28;19962;-87
2023/09/08 08:38:25;;;;;;;;;;;;;;;21.65;100.00;101727.56;5041350;28;20367;-84
2023/09/08 08:41:11;;;;;;;;;;;;;;;21.82;100.00;101739.72;5044167;28;20760;-86
2023/09/08 08:43:59;;;;;;;;;;;;;;;21.92;100.00;101726.38;5040533;28;19928;-86
2023/09/08 08:46:45;;;;;;;;;;;;;;;22.00;100.00;101733.84;5042546;28;20302;-85
2023/09/08 08:49:31;;;;;;;;;;;;;;;22.03;100.00;101725.50;5043409;28;19929;-87
2023/09/08 08:52:17;;;;;;;;;;;;;;;22.16;100.00;101728.06;5041403;28;20486;-88
2023/09/08 08:55:03;;;;;;;;;;;;;;;22.25;100.00;101730.03;5039958;28;20004;-91
2023/09/08 08:57:51;;;;;;;;;;;;;;;22.33;100.00;101726.69;5028378;28;19929;-87
2023/09/08 09:00:40;;;;;;;;;;;;;;;22.42;100.00;101725.06;5044716;28;20023;-87
2023/09/08 09:03:27;;;;;;;;;;;;;;;22.50;100.00;101730.69;5029259;28;19924;-87
2023/09/08 09:06:15;;;;;;;;;;;;;;;22.63;100.00;101735.97;5040389;28;19933;-87
2023/09/08 09:09:04;;;;;;;;;;;;;;;22.83;100.00;101738.84;5043195;28;20031;-89
2023/09/08 09:11:50;;;;;;;;;;;;;;;22.95;100.00;101730.69;5041626;28;19936;-87
2023/09/08 09:14:36;;;;;;;;;;;;;;;23.08;100.00;101736.75;5040865;28;20015;-86
2023/09/08 09:17:21;;;;;;;;;;;;;;;23.24;100.00;101739.00;5039251;28;19929;-87
2023/09/08 09:20:17;;;;;;;;;;;;;;;23.41;100.00;101737.56;5026334;28;22081;-89
2023/09/08 09:23:03;;;;;;;;;;;;;;;23.59;100.00;101742.38;5041270;28;19929;-85
2023/09/08 09:25:51;;;;;;;;;;;;;;;23.69;100.00;101740.56;5025669;28;19925;-87
2023/09/08 09:28:46;;;;;;;;;;;;;;;23.78;100.00;101732.63;5040750;28;19939;-85
2023/09/08 09:31:31;;;;;;;;;;;;;;;23.87;100.00;101738.09;5039817;28;19952;-86
2023/09/08 09:34:20;;;;;;;;;;;;;;;23.97;100.00;101737.28;5042234;28;20462;-85
2023/09/08 09:37:08;;;;;;;;;;;;;;;23.98;100.00;101737.13;5038989;28;22134;-87
2023/09/08 09:39:54;;;;;;;;;;;;;;;24.04;100.00;101740.28;5020555;28;20475;-86
2023/09/08 09:42:40;;;;;;;;;;;;;;;24.10;100.00;101737.94;5014084;28;20136;-81
2023/09/08 09:45:26;;;;;;;;;;;;;;;24.15;100.00;101734.81;5040298;28;19935;-81
2023/09/08 09:48:12;;;;;;;;;;;;;;;24.18;100.00;101731.81;5026732;28;19928;-82
2023/09/08 09:50:57;;;;;;;;;;;;;;;24.16;100.00;101733.81;5039987;28;19932;-82
2023/09/08 09:53:43;;;;;;;;;;;;;;;24.17;100.00;101738.22;5040581;28;20053;-82
2023/09/08 09:56:29;;;;;;;;;;;;;;;24.20;100.00;101727.16;5043031;28;20846;-81
2023/09/08 09:59:15;;;;;;;;;;;;;;;24.21;100.00;101727.97;5027179;28;20023;-81
2023/09/08 10:02:02;;;;;;;;;;;;;;;24.30;100.00;101726.31;5041143;28;19935;-81
2023/09/08 10:04:49;;;;;;;;;;;;;;;24.32;100.00;101722.47;5039013;28;20520;-81
2023/09/08 10:07:38;;;;;;;;;;;;;;;24.36;100.00;101728.44;5039599;28;19936;-81
2023/09/08 10:10:23;;;;;;;;;;;;;;;24.41;100.00;101731.59;5024069;28;19928;-80
2023/09/08 10:13:12;;;;;;;;;;;;;;;24.46;100.00;101731.19;5025072;28;19929;-86
2023/09/08 10:15:58;;;;;;;;;;;;;;;24.42;100.00;101731.44;5027234;28;19924;-86
2023/09/08 10:18:45;;;;;;;;;;;;;;;24.46;100.00;101723.91;5029131;28;19924;-86
2023/09/08 10:21:30;;;;;;;;;;;;;;;24.52;99.19;101725.22;5026819;28;19947;-88
2023/09/08 10:24:31;;;;;;;;;;;;;;;24.64;100.00;101725.91;5029317;28;19939;-86
2023/09/08 10:27:20;;;;;;;;;;;;;;;24.73;100.00;101721.50;5029220;28;19940;-86
2023/09/08 10:30:06;;;;;;;;;;;;;;;24.80;100.00;101728.94;5010690;28;19993;-85
2023/09/08 10:32:52;;;;;;;;;;;;;;;24.83;100.00;101721.53;5017342;28;20373;-85
2023/09/08 10:35:38;;;;;;;;;;;;;;;24.82;99.66;101723.38;5026471;28;20478;-86
2023/09/08 10:38:26;;;;;;;;;;;;;;;24.84;99.05;101728.66;5048931;28;19932;-85
2023/09/08 10:41:15;;;;;;;;;;;;;;;24.90;99.33;101730.81;5061259;28;19928;-85
2023/09/08 10:44:02;;;;;;;;;;;;;;;24.93;99.46;101725.97;5042581;28;20415;-86
2023/09/08 10:46:47;;;;;;;;;;;;;;;25.01;99.24;101718.97;5062024;28;20391;-86
2023/09/08 10:49:36;;;;;;;;;;;;;;;25.06;99.15;101717.53;5043347;28;21711;-86
2023/09/08 10:52:22;;;;;;;;;;;;;;;25.12;98.28;101726.06;5042537;28;19928;-86
2023/09/08 10:55:10;;;;;;;;;;;;;;;25.19;98.20;101721.78;5042819;28;19936;-86
2023/09/08 10:57:56;;;;;;;;;;;;;;;25.31;96.82;101723.34;5045148;28;20003;-83
2023/09/08 11:00:43;;;;;;;;;;;;;;;25.36;96.29;101718.34;5058423;28;20062;-85
2023/09/08 11:03:35;;;;;;;;;;;;;;;25.36;96.29;101723.75;5044878;28;19939;-85
2023/09/08 11:06:30;;;;;;;;;;;;;;;25.35;95.72;101724.75;5059246;28;20034;-86
2023/09/08 11:09:18;;;;;;;;;;;;;;;25.46;95.49;101728.28;5043356;28;19960;-86
2023/09/08 11:12:04;;;;;;;;;;;;;;;25.53;95.36;101734.03;5046108;28;19928;-86
2023/09/08 11:14:50;;;;;;;;;;;;;;;25.57;95.04;101730.88;5026487;28;19925;-87
2023/09/08 11:17:39;;;;;;;;;;;;;;;25.60;93.92;101722.41;5045346;28;20026;-86
2023/09/08 11:20:30;;;;;;;;;;;;;;;25.65;94.50;101721.97;5043381;28;19924;-85
2023/09/08 11:23:18;;;;;;;;;;;;;;;25.66;94.23;101718.28;5023527;28;20411;-87
2023/09/08 11:26:06;;;;;;;;;;;;;;;25.74;93.75;101722.94;5045143;28;19932;-85
2023/09/08 11:28:53;;;;;;;;;;;;;;;25.82;92.13;101723.03;5047431;28;19929;-87
2023/09/08 11:31:42;;;;;;;;;;;;;;;25.87;93.13;101720.75;5049406;28;20034;-85
2023/09/08 11:34:27;;;;;;;;;;;;;;;25.92;92.59;101717.56;5050961;28;19928;-88
2023/09/08 11:37:14;;;;;;;;;;;;;;;25.93;92.82;101718.44;5049057;28;20320;-87
2023/09/08 11:40:02;;;;;;;;;;;;;;;25.93;92.75;101715.72;5050803;28;19928;-84
2023/09/08 11:42:48;;;;;;;;;;;;;;;25.99;92.62;101717.84;5063607;28;19929;-86
2023/09/08 11:45:34;;;;;;;;;;;;;;;26.07;91.28;101712.50;5051541;28;19924;-87
2023/09/08 11:48:24;;;;;;;;;;;;;;;26.09;90.80;101720.50;5047191;28;20021;-86
2023/09/08 11:51:10;;;;;;;;;;;;;;;26.15;90.38;101718.03;5025110;28;19977;-81
2023/09/08 11:53:55;;;;;;;;;;;;;;;26.24;89.53;101718.13;5045713;28;19925;-81
2023/09/08 11:56:41;;;;;;;;;;;;;;;26.33;88.16;101710.94;5048598;28;19932;-80
2023/09/08 11:59:27;;;;;;;;;;;;;;;26.38;88.03;101714.94;5063135;28;19920;-81
2023/09/08 12:02:13;;;;;;;;;;;;;;;26.40;88.61;101720.19;5048263;28;19931;-80
2023/09/08 12:04:58;;;;;;;;;;;;;;;26.46;87.62;101713.31;5031489;28;20271;-81
2023/09/08 12:07:47;;;;;;;;;;;;;;;26.50;87.19;101711.97;5063074;28;19939;-81
2023/09/08 12:10:40;;;;;;;;;;;;;;;26.54;87.99;101711.50;5036296;28;19974;-81
2023/09/08 12:13:26;;;;;;;;;;;;;;;26.57;87.98;101710.34;5047092;28;19924;-83
2023/09/08 12:16:19;;;;;;;;;;;;;;;26.58;88.97;101709.34;5061042;28;20009;-87
2023/09/08 12:19:05;;;;;;;;;;;;;;;26.57;89.08;101711.19;5048005;28;19935;-84
2023/09/08 12:21:55;;;;;;;;;;;;;;;26.65;84.24;101707.72;5047478;28;19932;-88
2023/09/08 12:24:49;;;;;;;;;;;;;;;26.70;88.03;101694.50;5034123;28;19929;-85
2023/09/08 12:27:35;;;;;;;;;;;;;;;26.78;85.08;101709.16;5046959;28;19928;-87
2023/09/08 12:30:42;;;;;;;;;;;;;;;;;;;;;
2023/09/08 12:33:28;;;;;;;;;;;;;;;26.81;86.61;101708.88;5047593;28;20322;-85
2023/09/08 12:36:14;;;;;;;;;;;;;;;26.80;85.29;101710.72;5034155;28;21451;-90
2023/09/08 12:39:00;;;;;;;;;;;;;;;26.82;85.00;101702.44;5040174;28;20328;-87
2023/09/08 12:41:45;;;;;;;;;;;;;;;26.85;85.98;101702.09;5037096;28;19924;-83
2023/09/08 12:44:31;;;;;;;;;;;;;;;26.83;86.00;101698.69;5041600;28;19928;-85
2023/09/08 12:47:17;;;;;;;;;;;;;;;26.86;85.79;101698.41;5040340;28;22024;-85
2023/09/08 12:50:03;;;;;;;;;;;;;;;26.87;85.66;101694.66;5023804;28;19924;-80
2023/09/08 12:52:49;;;;;;;;;;;;;;;26.91;86.80;101695.22;5040550;28;19951;-81
2023/09/08 12:55:35;;;;;;;;;;;;;;;26.94;86.88;101695.78;5036859;28;20020;-82
2023/09/08 12:58:27;;;;;;;;;;;;;;;26.95;85.81;101697.47;5039388;28;21899;-83
2023/09/08 13:01:13;;;;;;;;;;;;;;;26.97;85.29;101690.00;5040971;28;21992;-89
2023/09/08 13:03:59;;;;;;;;;;;;;;;26.95;85.12;101689.31;5026686;28;19932;-83
2023/09/08 13:06:45;;;;;;;;;;;;;;;26.98;86.00;101689.00;5022093;28;19936;-84
2023/09/08 13:09:31;;;;;;;;;;;;;;;27.01;84.99;101687.81;5036716;28;19981;-83
2023/09/08 13:12:16;;;;;;;;;;;;;;;27.03;85.70;101682.25;5039181;28;21904;-85
2023/09/08 13:15:02;;;;;;;;;;;;;;;27.02;85.64;101685.97;5039665;28;19932;-78
2023/09/08 13:17:48;;;;;;;;;;;;;;;27.00;85.45;101679.84;5041983;28;19933;-79
2023/09/08 13:20:33;;;;;;;;;;;;;;;26.94;86.73;101679.47;5041466;28;19951;-78
2023/09/08 13:23:19;;;;;;;;;;;;;;;26.93;86.96;101682.34;5027349;28;19925;-80
2023/09/08 13:26:04;;;;;;;;;;;;;;;26.93;87.23;101677.78;5041517;28;20018;-79
2023/09/08 13:28:53;;;;;;;;;;;;;;;27.02;85.94;101673.22;5040665;28;21765;-83
2023/09/08 13:31:42;;;;;;;;;;;;;;;27.05;85.35;101663.91;5040938;28;19925;-83
2023/09/08 13:34:30;;;;;;;;;;;;;;;27.02;85.72;101669.69;5042264;28;19928;-84
2023/09/08 13:37:16;;;;;;;;;;;;;;;27.01;86.50;101673.41;5017812;28;20759;-83
2023/09/08 13:40:03;;;;;;;;;;;;;;;27.04;84.11;101670.34;5040683;28;20453;-84
2023/09/08 13:42:49;;;;;;;;;;;;;;;27.04;84.85;101670.34;5035746;28;19956;-85
2023/09/08 13:45:35;;;;;;;;;;;;;;;27.09;84.10;101671.59;5047227;28;19978;-84
2023/09/08 13:48:24;;;;;;;;;;;;;;;27.09;84.14;101668.88;5054784;28;20386;-82
2023/09/08 13:51:10;;;;;;;;;;;;;;;27.05;84.60;101669.34;5035766;28;19928;-83
2023/09/08 13:53:56;;;;;;;;;;;;;;;27.00;87.10;101666.28;5052924;28;19924;-84
2023/09/08 13:56:41;;;;;;;;;;;;;;;27.01;86.25;101667.97;5034938;28;20059;-85
2023/09/08 13:59:29;;;;;;;;;;;;;;;27.01;85.24;101670.69;5050573;28;19960;-83
2023/09/08 14:02:14;;;;;;;;;;;;;;;27.01;85.09;101662.53;5037490;28;19928;-84
2023/09/08 14:05:00;;;;;;;;;;;;;;;26.98;84.78;101663.72;5048792;28;21425;-82
2023/09/08 14:07:46;;;;;;;;;;;;;;;26.93;85.82;101668.75;5051496;28;19928;-83